Terminal Aerodrome Forecast
Issued by NWS

Home | Current Version | Previous Version | Text Only | Print | Product List | Glossary On
Versions: 1 2 3 4 5 6 7 8 9 10 11 12 13
000
FTUS46 KPDT 161700
TAFBDN
TAF
KBDN 161733Z 1618/1718 21005KT P6SM SCT150
     FM162100 33011G16KT P6SM FEW250
     FM162300 33010G15KT P6SM FEW150 SCT250
     FM170300 32007KT P6SM FEW120 OVC150
     FM170700 21005KT P6SM FEW090 OVC130=

USA.gov is the U.S. government's official web portal to all federal, state and local government web resources and services.